Terminal Aerodrome Forecast
Issued by NWS

Home | Current Version | Previous Version | Text Only | Print | Product List | Glossary On
Versions: 1 2 3 4 5 6 7 8 9 10 11 12 13 14 15 16 17 18
000
FTUS43 KOAX 201900 AAA
TAFBFF
TAF AMD
KBFF 201901Z 2019/2118 32013G23KT P6SM SCT100
     FM202100 31008KT P6SM VCTS SCT060CB BKN090
      TEMPO 2021/2024 5SM TSRA BKN050CB
     FM210200 32005KT P6SM SCT150=

USA.gov is the U.S. government's official web portal to all federal, state and local government web resources and services.